首页
METAR-TAF:

METAR-TAF

机场 :

奧克蘭機場

奧克蘭都會區, 新西兰

纬度: 37-01S, 经度: 174-48E, 海拔: 7米

当前天气观测

该预报发布于20分钟前的04:00 UTC
风速9节,风向西
温度 14°C
湿度 63%
气压 1018 hPa
能见度10公里或以上

METAR: NZAA 230400Z AUTO 27009KT 9999 NCD 14/07 Q1018 NOSIG

时间: 16:20 (04:20 UTC)

预报

该预报发布于5小时和19分钟前的23:01 UTC
预报有效从23日的 00点(UTC)到 24日的 00点(UTC)
风速2节,风向多变
能见度10公里或以上
多云层高于5000英尺
小阵雨
成为
从 23日的 00点(UTC)到 23日的 02点(UTC)
风速10节,风向西
成为
从 23日的 06点(UTC)到 23日的 08点(UTC)
风速5节,风向西北
短暂存在
从 23日的 06点(UTC)到 23日的 16点(UTC)
能見度: 7000
阵雨

TAF: NZAA 222301Z 2300/2400 VRB02KT 9999 -SHRA BKN050 BECMG 2300/2302 26010KT BECMG 2306/2308 32005KT TEMPO 2306/2316 7000 SHRA

超过4000个机场的气象观测和天气预报(METAR&TAF报告)。

可查询的气象台以黄色和红色小点在地图上表示。

将鼠标移到小点上方,可查看气象台名称。

然后点击查看天气观测和预报。

如需切换地图:点击带黑十字的绿色按钮放大地图;点击带横线的绿色按钮缩小地图;或者点击绿色箭头查看邻近地区的地图。


METAR-TAF: